createdAt,value
2022-12-15T00:03:50.159Z,99296.44
2022-12-15T00:08:10.626Z,99293.97
2022-12-15T00:12:31.019Z,99294.81
2022-12-15T00:16:51.609Z,99298.03
2022-12-15T00:21:16.396Z,99294.59
2022-12-15T00:25:37.105Z,99286.13
2022-12-15T00:29:57.428Z,99304.84
2022-12-15T00:34:18.080Z,99295.50
2022-12-15T00:38:38.136Z,99292.19
2022-12-15T00:42:40.191Z,99293.72
2022-12-15T00:46:57.119Z,99288.59
2022-12-15T00:50:59.624Z,99284.31
2022-12-15T00:55:20.319Z,99291.09
2022-12-15T00:59:41.153Z,99282.81
2022-12-15T01:04:01.257Z,99269.03
2022-12-15T01:08:21.805Z,99279.22
2022-12-15T01:12:42.021Z,99280.06
2022-12-15T01:17:02.738Z,99279.28
2022-12-15T01:21:08.293Z,99278.41
2022-12-15T01:25:11.609Z,99270.69
2022-12-15T01:29:13.439Z,99267.31
2022-12-15T01:33:16.894Z,99266.31
2022-12-15T01:37:18.619Z,99267.94
2022-12-15T01:41:20.832Z,99268.06
2022-12-15T01:45:28.464Z,99274.88
2022-12-15T01:49:32.394Z,99278.41
2022-12-15T01:53:40.801Z,99272.97
2022-12-15T01:57:43.151Z,99270.47
2022-12-15T02:01:49.585Z,99265.25
2022-12-15T02:05:53.011Z,99262.66
2022-12-15T02:09:57.429Z,99271.16
2022-12-15T02:14:07.789Z,99272.97
2022-12-15T02:18:20.000Z,99281.47
2022-12-15T02:22:46.209Z,99286.59
2022-12-15T02:27:09.867Z,99281.63
2022-12-15T02:31:38.876Z,99273.00
2022-12-15T02:35:57.835Z,99287.47
2022-12-15T02:40:00.433Z,99288.22
2022-12-15T02:44:14.337Z,99288.31
2022-12-15T02:48:33.333Z,99292.63
2022-12-15T02:53:12.822Z,99301.09
2022-12-15T02:57:32.902Z,99294.25
2022-12-15T03:01:36.863Z,99300.94
2022-12-15T03:05:38.921Z,99291.56
2022-12-15T03:09:40.720Z,99294.97
2022-12-15T03:13:42.761Z,99295.94
2022-12-15T03:17:44.870Z,99295.84
2022-12-15T03:21:47.023Z,99302.75
2022-12-15T03:25:49.791Z,99295.78
2022-12-15T03:29:51.958Z,99299.13
2022-12-15T03:33:53.898Z,99306.78
2022-12-15T03:37:55.865Z,99311.06
2022-12-15T03:41:57.558Z,99311.16
2022-12-15T03:45:59.533Z,99319.13
2022-12-15T03:50:01.235Z,99324.81
2022-12-15T03:54:03.425Z,99318.88
2022-12-15T03:58:05.146Z,99322.31
2022-12-15T04:02:09.760Z,99318.78
2022-12-15T04:06:11.613Z,99317.84
2022-12-15T04:10:13.834Z,99328.16
2022-12-15T04:14:15.470Z,99329.81
2022-12-15T04:18:17.648Z,99339.09
2022-12-15T04:22:19.494Z,99337.47
2022-12-15T04:26:40.187Z,99338.25
2022-12-15T04:31:06.518Z,99334.06
2022-12-15T04:35:27.878Z,99333.16
2022-12-15T04:39:48.889Z,99335.91
2022-12-15T04:44:09.497Z,99344.34
2022-12-15T04:48:30.038Z,99358.91
2022-12-15T04:52:50.729Z,99350.28
2022-12-15T04:57:11.198Z,99362.34
2022-12-15T05:01:31.848Z,99353.03
2022-12-15T05:05:51.993Z,99362.47
2022-12-15T05:10:15.095Z,99369.44
2022-12-15T05:14:35.863Z,99377.91
2022-12-15T05:18:56.803Z,99376.97
2022-12-15T05:23:17.547Z,99382.94
2022-12-15T05:27:37.961Z,99386.44
2022-12-15T05:31:52.018Z,99408.00
2022-12-15T05:35:57.580Z,99411.25
2022-12-15T05:39:59.276Z,99409.59
2022-12-15T05:44:01.682Z,99415.47
2022-12-15T05:48:03.818Z,99418.03
2022-12-15T05:52:06.390Z,99432.63
2022-12-15T05:56:11.759Z,99441.09
2022-12-15T06:00:13.980Z,99453.88
2022-12-15T06:04:15.956Z,99454.78
2022-12-15T06:08:18.094Z,99468.50
2022-12-15T06:12:19.747Z,99465.00
2022-12-15T06:16:23.777Z,99477.75
2022-12-15T06:20:25.513Z,99487.22
2022-12-15T06:24:27.522Z,99499.13
2022-12-15T06:28:29.413Z,99505.81
2022-12-15T06:32:34.694Z,99511.88
2022-12-15T06:36:36.684Z,99526.31
2022-12-15T06:40:39.651Z,99523.00
2022-12-15T06:44:41.341Z,99531.34
2022-12-15T06:48:45.783Z,99551.97
2022-12-15T06:52:47.459Z,99552.03
2022-12-15T06:56:49.761Z,99554.66
2022-12-15T07:00:51.732Z,99566.47
2022-12-15T07:04:53.758Z,99573.53
2022-12-15T07:08:56.754Z,99573.44
2022-12-15T07:12:58.605Z,99593.97
2022-12-15T07:17:00.658Z,99596.66
2022-12-15T07:21:06.055Z,99607.66
2022-12-15T07:25:08.765Z,99609.44
2022-12-15T07:29:11.940Z,99625.72
2022-12-15T07:33:13.864Z,99627.41
2022-12-15T07:37:16.332Z,99640.88
2022-12-15T07:41:19.335Z,99644.38
2022-12-15T07:45:21.902Z,99655.28
2022-12-15T07:49:23.788Z,99670.81
2022-12-15T07:53:27.877Z,99685.44
2022-12-15T07:57:30.062Z,99685.44
2022-12-15T08:01:32.564Z,99693.78
2022-12-15T08:05:34.943Z,99692.06
2022-12-15T08:09:37.568Z,99708.97
2022-12-15T08:18:02.991Z,99717.56
2022-12-15T08:22:04.718Z,99721.78
2022-12-15T08:26:15.175Z,99733.72
2022-12-15T08:30:18.424Z,99743.00
2022-12-15T08:34:20.955Z,99768.59
2022-12-15T08:38:22.581Z,99770.34
2022-12-15T08:42:24.610Z,99783.97
2022-12-15T08:46:33.468Z,99791.91
2022-12-15T08:50:35.508Z,99799.38
2022-12-15T08:54:37.303Z,99797.59
2022-12-15T08:58:39.746Z,99823.47
2022-12-15T09:02:41.479Z,99808.78
2022-12-15T09:06:43.883Z,99819.00
2022-12-15T09:10:52.344Z,99825.03
2022-12-15T09:14:54.901Z,99817.19
2022-12-15T09:18:59.250Z,99828.97
2022-12-15T09:23:00.915Z,99849.75
2022-12-15T09:27:03.615Z,99864.50
2022-12-15T09:31:08.158Z,99864.50
2022-12-15T09:35:10.220Z,99870.56
2022-12-15T09:39:12.410Z,99862.69
2022-12-15T09:43:34.457Z,99872.00
2022-12-15T09:47:44.833Z,99872.09
2022-12-15T09:51:55.976Z,99865.03
2022-12-15T09:56:15.477Z,99866.69
2022-12-15T10:00:29.807Z,99881.00
2022-12-15T10:04:47.424Z,99884.03
2022-12-15T10:08:54.780Z,99888.19
2022-12-15T10:13:02.879Z,99888.94
2022-12-15T10:17:21.549Z,99894.06
2022-12-15T10:21:27.982Z,99911.00
2022-12-15T10:25:33.104Z,99923.44
2022-12-15T10:29:44.032Z,99907.41
2022-12-15T10:33:54.573Z,99900.56
2022-12-15T10:38:00.219Z,99919.34
2022-12-15T10:42:17.690Z,99920.97
2022-12-15T10:46:28.462Z,99930.44
2022-12-15T10:50:30.781Z,99931.97
2022-12-15T10:54:43.681Z,99948.38
2022-12-15T10:58:50.071Z,99944.41
2022-12-15T11:02:52.135Z,99965.22
2022-12-15T11:07:03.805Z,99965.94
2022-12-15T11:11:45.165Z,99972.63
2022-12-15T11:15:56.353Z,99955.88
2022-12-15T11:20:03.448Z,99962.84
2022-12-15T11:24:35.357Z,99957.97
2022-12-15T11:28:50.963Z,99939.31
2022-12-15T11:32:57.844Z,99945.31
2022-12-15T11:37:20.810Z,99963.00
2022-12-15T11:42:01.560Z,99983.72
2022-12-15T11:46:21.858Z,99991.69
2022-12-15T11:50:31.301Z,99987.47
2022-12-15T11:54:52.708Z,99984.78
2022-12-15T11:59:36.280Z,99987.41
2022-12-15T12:03:53.353Z,99997.78
2022-12-15T12:08:10.277Z,99997.78
2022-12-15T12:12:30.497Z,100003.84
2022-12-15T12:16:56.267Z,99997.13
2022-12-15T12:21:08.969Z,100001.22
2022-12-15T12:25:15.554Z,100015.13
2022-12-15T12:29:33.243Z,100015.13
2022-12-15T12:33:48.617Z,100024.41
2022-12-15T12:38:03.951Z,100028.66
2022-12-15T12:42:16.852Z,100033.94
2022-12-15T12:46:28.842Z,100034.63
2022-12-15T12:50:33.443Z,100044.97
2022-12-15T12:54:35.270Z,100040.75
2022-12-15T12:58:37.080Z,100041.66
2022-12-15T13:02:59.273Z,100050.84
2022-12-15T13:11:53.806Z,100065.44
2022-12-15T13:16:05.719Z,100068.06
2022-12-15T13:20:22.608Z,100070.59
2022-12-15T13:24:45.157Z,100073.19
2022-12-15T13:28:50.786Z,100068.06
2022-12-15T13:33:19.183Z,100076.69
2022-12-15T13:37:48.917Z,100090.28
2022-12-15T13:42:31.747Z,100095.44
2022-12-15T13:46:23.247Z,100101.34
2022-12-15T13:50:39.433Z,100098.94
2022-12-15T13:54:46.444Z,100118.72
2022-12-15T13:59:00.961Z,100121.19
2022-12-15T14:03:10.291Z,100140.03
2022-12-15T14:07:12.369Z,100134.00
2022-12-15T14:11:51.429Z,100134.00
2022-12-15T14:15:50.909Z,100119.50
2022-12-15T14:19:52.991Z,100104.13
2022-12-15T14:24:37.079Z,100104.22
2022-12-15T14:28:31.877Z,100120.44
2022-12-15T14:32:33.998Z,100119.63
2022-12-15T14:36:36.599Z,100126.47
2022-12-15T14:40:40.054Z,100118.84
2022-12-15T14:44:49.721Z,100108.56
2022-12-15T14:49:03.271Z,100119.72
2022-12-15T14:53:16.757Z,100124.03
2022-12-15T14:57:25.285Z,100141.16
2022-12-15T15:01:33.321Z,100140.31
2022-12-15T15:03:12.903Z,100060.31
2022-12-15T15:05:40.479Z,100142.03
2022-12-15T15:09:45.183Z,100142.91
2022-12-15T15:13:47.513Z,100148.94
2022-12-15T15:17:53.176Z,100158.31
2022-12-15T15:21:55.342Z,100163.44
2022-12-15T15:26:08.350Z,100169.44
2022-12-15T15:30:22.148Z,100174.56
2022-12-15T15:34:23.798Z,100177.97
2022-12-15T15:38:33.818Z,100172.00
2022-12-15T15:42:35.859Z,100188.22
2022-12-15T15:46:44.879Z,100192.50
2022-12-15T15:50:47.289Z,100185.63
2022-12-15T15:54:49.549Z,100199.34
2022-12-15T15:58:51.496Z,100212.19
2022-12-15T16:02:53.446Z,100207.06
2022-12-15T16:06:55.908Z,100214.75
2022-12-15T16:10:58.067Z,100223.28
2022-12-15T16:14:59.744Z,100233.53
2022-12-15T16:19:01.762Z,100245.50
2022-12-15T16:23:18.177Z,100249.75
2022-12-15T16:27:20.141Z,100257.44
2022-12-15T16:31:32.778Z,100267.69
2022-12-15T16:35:38.406Z,100279.69
2022-12-15T16:39:40.325Z,100278.81
2022-12-15T16:43:48.166Z,100280.53
2022-12-15T16:47:50.358Z,100277.94
2022-12-15T16:51:54.208Z,100283.09
2022-12-15T16:56:02.916Z,100286.53
2022-12-15T17:00:15.230Z,100296.78
2022-12-15T17:04:17.407Z,100285.63
2022-12-15T17:08:24.718Z,100295.91
2022-12-15T17:12:26.720Z,100291.63
2022-12-15T17:16:29.894Z,100292.47
2022-12-15T17:20:32.596Z,100298.44
2022-12-15T17:24:34.559Z,100309.59
2022-12-15T17:28:40.706Z,100301.91
2022-12-15T17:32:43.475Z,100305.28
2022-12-15T17:36:45.352Z,100311.22
2022-12-15T17:40:48.651Z,100302.66
2022-12-15T17:44:51.780Z,100304.34
2022-12-15T17:48:53.672Z,100306.94
2022-12-15T17:52:55.905Z,100309.50
2022-12-15T17:56:58.622Z,100309.47
2022-12-15T18:01:00.629Z,100316.28
2022-12-15T18:05:02.589Z,100333.47
2022-12-15T18:09:05.918Z,100324.88
2022-12-15T18:13:33.362Z,100334.28
2022-12-15T18:17:37.293Z,100326.56
2022-12-15T18:21:39.357Z,100337.69
2022-12-15T18:25:42.288Z,100342.81
2022-12-15T18:29:44.118Z,100342.00
2022-12-15T18:33:46.570Z,100353.97
2022-12-15T18:37:50.518Z,100363.38
2022-12-15T18:41:54.854Z,100371.06
2022-12-15T18:45:56.745Z,100366.78
2022-12-15T18:49:58.664Z,100376.19
2022-12-15T18:54:00.944Z,100376.19
2022-12-15T18:58:02.663Z,100374.50
2022-12-15T19:02:04.754Z,100383.03
2022-12-15T19:06:34.922Z,100385.63
2022-12-15T19:10:45.725Z,100399.28
2022-12-15T19:14:49.961Z,100419.84
2022-12-15T19:19:16.960Z,100417.25
2022-12-15T19:23:19.099Z,100414.69
2022-12-15T19:27:26.052Z,100418.97
2022-12-15T19:31:27.897Z,100414.66
2022-12-15T19:35:29.987Z,100418.13
2022-12-15T19:39:35.006Z,100414.69
2022-12-15T19:43:37.407Z,100411.28
2022-12-15T19:47:39.416Z,100420.69
2022-12-15T19:51:41.749Z,100416.41
2022-12-15T19:55:44.444Z,100415.56
2022-12-15T19:59:46.183Z,100413.81
2022-12-15T20:03:51.129Z,100416.38
2022-12-15T20:07:53.755Z,100416.38
2022-12-15T20:11:55.774Z,100411.22
2022-12-15T20:15:58.152Z,100413.78
2022-12-15T20:19:59.820Z,100413.78
2022-12-15T20:24:07.671Z,100411.22
2022-12-15T20:28:24.896Z,100418.06
2022-12-15T20:32:26.850Z,100434.34
2022-12-15T20:36:30.627Z,100428.34
2022-12-15T20:40:32.372Z,100434.38
2022-12-15T20:44:34.507Z,100436.03
2022-12-15T20:48:37.095Z,100420.63
2022-12-15T20:52:39.525Z,100436.94
2022-12-15T20:56:42.624Z,100431.78
2022-12-15T21:00:46.150Z,100424.09
2022-12-15T21:04:48.921Z,100427.50
2022-12-15T21:08:50.804Z,100415.50
2022-12-15T21:12:53.014Z,100419.78
2022-12-15T21:16:56.356Z,100423.19
2022-12-15T21:21:01.452Z,100423.22
2022-12-15T21:25:04.350Z,100410.41
2022-12-15T21:29:18.119Z,100406.97
2022-12-15T21:33:20.619Z,100406.97
2022-12-15T21:37:29.400Z,100406.13
2022-12-15T21:41:31.683Z,100413.00
2022-12-15T21:45:33.388Z,100397.59
2022-12-15T21:49:35.438Z,100394.16
2022-12-15T21:53:37.389Z,100391.59
2022-12-15T21:57:39.129Z,100400.16
2022-12-15T22:01:41.281Z,100401.00
2022-12-15T22:05:43.487Z,100394.16
2022-12-15T22:09:45.454Z,100377.06
2022-12-15T22:13:48.394Z,100375.38
2022-12-15T22:17:50.744Z,100376.22
2022-12-15T22:21:52.928Z,100379.66
2022-12-15T22:25:55.933Z,100385.66
2022-12-15T22:29:57.896Z,100407.00
2022-12-15T22:33:59.772Z,100409.59
2022-12-15T22:38:01.910Z,100414.72
2022-12-15T22:42:04.690Z,100424.97
2022-12-15T22:46:12.775Z,100424.97
2022-12-15T22:50:18.879Z,100420.72
2022-12-15T22:54:23.782Z,100425.84
2022-12-15T22:58:32.568Z,100423.28
2022-12-15T23:02:39.067Z,100419.00
2022-12-15T23:06:41.085Z,100414.72
2022-12-15T23:11:01.811Z,100411.31
2022-12-15T23:15:22.756Z,100407.91
2022-12-15T23:19:24.515Z,100413.03
2022-12-15T23:23:27.976Z,100404.44
2022-12-15T23:27:29.706Z,100404.44
2022-12-15T23:31:31.953Z,100416.44
2022-12-15T23:35:33.933Z,100407.91
2022-12-15T23:39:35.878Z,100424.13
2022-12-15T23:43:37.783Z,100422.41
2022-12-15T23:47:39.699Z,100426.69
2022-12-15T23:51:41.460Z,100430.09
2022-12-15T23:55:43.319Z,100424.97
2022-12-15T23:59:45.624Z,100420.72
